sensor_id;sensor_type;location;lat;lon;timestamp;pressure;altitude;pressure_sealevel;temperature;humidity
42603;BME280;28233;55.748;48.752;2023-02-10T00:01:31;100574.03;;;-4.71;95.38
42603;BME280;28233;55.748;48.752;2023-02-10T00:03:35;100560.84;;;-4.72;95.18
42603;BME280;28233;55.748;48.752;2023-02-10T00:05:38;100565.34;;;-4.73;95.57
42603;BME280;28233;55.748;48.752;2023-02-10T00:07:40;100571.75;;;-4.74;95.66
42603;BME280;28233;55.748;48.752;2023-02-10T00:09:43;100560.63;;;-4.71;96.02
42603;BME280;28233;55.748;48.752;2023-02-10T00:11:46;100567.63;;;-4.76;96.06
42603;BME280;28233;55.748;48.752;2023-02-10T00:14:02;100560.63;;;-4.71;95.98
42603;BME280;28233;55.748;48.752;2023-02-10T00:16:07;100554.63;;;-4.73;96.01
42603;BME280;28233;55.748;48.752;2023-02-10T00:18:12;100553.63;;;-4.72;95.97
42603;BME280;28233;55.748;48.752;2023-02-10T00:20:14;100541.66;;;-4.69;95.90
42603;BME280;28233;55.748;48.752;2023-02-10T00:22:17;100551.16;;;-4.67;96.53
42603;BME280;28233;55.748;48.752;2023-02-10T00:24:20;100538.59;;;-4.66;96.01
42603;BME280;28233;55.748;48.752;2023-02-10T00:26:23;100535.91;;;-4.66;95.94
42603;BME280;28233;55.748;48.752;2023-02-10T00:28:27;100548.69;;;-4.68;96.16
42603;BME280;28233;55.748;48.752;2023-02-10T00:30:30;100542.72;;;-4.63;96.43
42603;BME280;28233;55.748;48.752;2023-02-10T00:32:33;100531.19;;;-4.64;96.16
42603;BME280;28233;55.748;48.752;2023-02-10T00:34:39;100538.84;;;-4.61;96.20
42603;BME280;28233;55.748;48.752;2023-02-10T00:36:42;100551.41;;;-4.61;96.06
42603;BME280;28233;55.748;48.752;2023-02-10T00:38:45;100520.50;;;-4.57;96.13
42603;BME280;28233;55.748;48.752;2023-02-10T00:40:47;100520.09;;;-4.54;96.20
42603;BME280;28233;55.748;48.752;2023-02-10T00:42:50;100535.16;;;-4.53;95.83
42603;BME280;28233;55.748;48.752;2023-02-10T00:44:52;100531.03;;;-4.56;95.75
42603;BME280;28233;55.748;48.752;2023-02-10T00:46:55;100541.13;;;-4.58;95.72
42603;BME280;28233;55.748;48.752;2023-02-10T00:48:58;100539.06;;;-4.56;95.82
42603;BME280;28233;55.748;48.752;2023-02-10T00:51:01;100533.31;;;-4.53;96.26
42603;BME280;28233;55.748;48.752;2023-02-10T00:53:04;100522.00;;;-4.48;96.38
42603;BME280;28233;55.748;48.752;2023-02-10T00:55:07;100529.00;;;-4.47;95.90
42603;BME280;28233;55.748;48.752;2023-02-10T00:57:09;100532.53;;;-4.47;96.04
42603;BME280;28233;55.748;48.752;2023-02-10T00:59:12;100533.97;;;-4.44;96.15
42603;BME280;28233;55.748;48.752;2023-02-10T01:01:15;100526.56;;;-4.42;95.88
42603;BME280;28233;55.748;48.752;2023-02-10T01:03:18;100541.63;;;-4.41;95.68
42603;BME280;28233;55.748;48.752;2023-02-10T01:05:21;100531.94;;;-4.42;95.86
42603;BME280;28233;55.748;48.752;2023-02-10T01:07:23;100530.06;;;-4.41;96.07
42603;BME280;28233;55.748;48.752;2023-02-10T01:09:26;100528.41;;;-4.42;95.90
42603;BME280;28233;55.748;48.752;2023-02-10T01:11:29;100529.66;;;-4.38;95.74
42603;BME280;28233;55.748;48.752;2023-02-10T01:13:32;100519.38;;;-4.35;95.68
42603;BME280;28233;55.748;48.752;2023-02-10T01:15:45;100521.03;;;-4.34;95.79
42603;BME280;28233;55.748;48.752;2023-02-10T01:17:48;100514.00;;;-4.35;95.38
42603;BME280;28233;55.748;48.752;2023-02-10T01:19:51;100519.97;;;-4.33;95.17
42603;BME280;28233;55.748;48.752;2023-02-10T01:21:54;100517.94;;;-4.31;94.88
42603;BME280;28233;55.748;48.752;2023-02-10T01:23:57;100515.69;;;-4.27;94.96
42603;BME280;28233;55.748;48.752;2023-02-10T01:25:59;100519.63;;;-4.23;94.71
42603;BME280;28233;55.748;48.752;2023-02-10T01:28:03;100510.31;;;-4.27;94.19
42603;BME280;28233;55.748;48.752;2023-02-10T01:30:07;100512.81;;;-4.26;94.38
42603;BME280;28233;55.748;48.752;2023-02-10T01:32:09;100505.38;;;-4.23;94.05
42603;BME280;28233;55.748;48.752;2023-02-10T01:34:12;100509.50;;;-4.21;94.10
42603;BME280;28233;55.748;48.752;2023-02-10T01:36:17;100503.31;;;-4.21;93.71
42603;BME280;28233;55.748;48.752;2023-02-10T01:38:20;100498.38;;;-4.18;93.82
42603;BME280;28233;55.748;48.752;2023-02-10T01:40:24;100505.81;;;-4.20;93.56
42603;BME280;28233;55.748;48.752;2023-02-10T01:42:27;100512.00;;;-4.19;93.42
42603;BME280;28233;55.748;48.752;2023-02-10T01:46:33;100489.69;;;-4.27;92.94
42603;BME280;28233;55.748;48.752;2023-02-10T01:48:37;100502.09;;;-4.26;93.30
42603;BME280;28233;55.748;48.752;2023-02-10T01:50:48;100494.84;;;-4.25;93.07
42603;BME280;28233;55.748;48.752;2023-02-10T01:52:54;100511.97;;;-4.26;93.38
42603;BME280;28233;55.748;48.752;2023-02-10T01:55:06;100486.41;;;-4.22;93.40
42603;BME280;28233;55.748;48.752;2023-02-10T01:57:09;100493.19;;;-4.26;93.55
42603;BME280;28233;55.748;48.752;2023-02-10T01:59:13;100495.03;;;-4.27;93.77
42603;BME280;28233;55.748;48.752;2023-02-10T02:01:17;100500.00;;;-4.30;93.43
42603;BME280;28233;55.748;48.752;2023-02-10T02:03:20;100509.88;;;-4.31;93.48
42603;BME280;28233;55.748;48.752;2023-02-10T02:05:34;100501.84;;;-4.31;93.57
42603;BME280;28233;55.748;48.752;2023-02-10T02:07:37;100502.88;;;-4.32;93.58
42603;BME280;28233;55.748;48.752;2023-02-10T02:09:41;100507.00;;;-4.29;93.28
42603;BME280;28233;55.748;48.752;2023-02-10T02:14:29;100488.41;;;-4.31;92.98
42603;BME280;28233;55.748;48.752;2023-02-10T02:18:52;100482.03;;;-4.30;93.38
42603;BME280;28233;55.748;48.752;2023-02-10T02:28:01;100483.50;;;-4.27;93.55
42603;BME280;28233;55.748;48.752;2023-02-10T02:32:55;100481.81;;;-4.28;93.82
42603;BME280;28233;55.748;48.752;2023-02-10T02:35:07;100476.66;;;-4.30;93.41
42603;BME280;28233;55.748;48.752;2023-02-10T02:37:19;100491.31;;;-4.32;93.62
42603;BME280;28233;55.748;48.752;2023-02-10T02:39:23;100475.22;;;-4.32;93.78
42603;BME280;28233;55.748;48.752;2023-02-10T02:41:26;100483.50;;;-4.27;93.82
42603;BME280;28233;55.748;48.752;2023-02-10T02:43:29;100477.09;;;-4.26;93.62
42603;BME280;28233;55.748;48.752;2023-02-10T02:45:50;100489.28;;;-4.23;93.68
42603;BME280;28233;55.748;48.752;2023-02-10T02:52:11;100481.22;;;-4.30;93.72
42603;BME280;28233;55.748;48.752;2023-02-10T02:54:30;100486.38;;;-4.29;93.35
42603;BME280;28233;55.748;48.752;2023-02-10T02:56:54;100481.19;;;-4.37;93.53
42603;BME280;28233;55.748;48.752;2023-02-10T02:59:06;100476.84;;;-4.38;93.58
42603;BME280;28233;55.748;48.752;2023-02-10T03:01:16;100492.13;;;-4.32;93.30
42603;BME280;28233;55.748;48.752;2023-02-10T03:03:23;100484.91;;;-4.31;94.06
42603;BME280;28233;55.748;48.752;2023-02-10T03:05:31;100480.38;;;-4.31;94.00
42603;BME280;28233;55.748;48.752;2023-02-10T03:07:34;100505.56;;;-4.32;93.75
42603;BME280;28233;55.748;48.752;2023-02-10T03:09:37;100487.59;;;-4.31;93.78
42603;BME280;28233;55.748;48.752;2023-02-10T03:11:40;100483.06;;;-4.31;93.82
42603;BME280;28233;55.748;48.752;2023-02-10T03:13:43;100475.41;;;-4.34;94.08
42603;BME280;28233;55.748;48.752;2023-02-10T03:15:45;100470.88;;;-4.33;93.48
42603;BME280;28233;55.748;48.752;2023-02-10T03:17:49;100479.94;;;-4.34;93.82
42603;BME280;28233;55.748;48.752;2023-02-10T03:19:52;100482.00;;;-4.36;93.85
42603;BME280;28233;55.748;48.752;2023-02-10T03:21:55;100477.28;;;-4.34;94.01
42603;BME280;28233;55.748;48.752;2023-02-10T03:23:58;100468.41;;;-4.35;94.07
42603;BME280;28233;55.748;48.752;2023-02-10T03:26:03;100464.50;;;-4.32;93.92
42603;BME280;28233;55.748;48.752;2023-02-10T03:28:06;100476.44;;;-4.35;93.63
42603;BME280;28233;55.748;48.752;2023-02-10T03:30:09;100470.47;;;-4.37;93.69
42603;BME280;28233;55.748;48.752;2023-02-10T03:32:11;100463.03;;;-4.35;93.88
42603;BME280;28233;55.748;48.752;2023-02-10T03:34:14;100466.31;;;-4.39;94.01
42603;BME280;28233;55.748;48.752;2023-02-10T03:36:17;100469.41;;;-4.36;93.65
42603;BME280;28233;55.748;48.752;2023-02-10T03:38:20;100458.06;;;-4.38;93.95
42603;BME280;28233;55.748;48.752;2023-02-10T03:40:22;100450.84;;;-4.37;93.85
42603;BME280;28233;55.748;48.752;2023-02-10T03:42:25;100456.22;;;-4.31;93.93
42603;BME280;28233;55.748;48.752;2023-02-10T03:44:28;100455.59;;;-4.33;93.77
42603;BME280;28233;55.748;48.752;2023-02-10T03:46:31;100449.84;;;-4.30;93.71
42603;BME280;28233;55.748;48.752;2023-02-10T03:48:34;100458.28;;;-4.33;93.71
42603;BME280;28233;55.748;48.752;2023-02-10T03:50:37;100455.81;;;-4.34;93.51
42603;BME280;28233;55.748;48.752;2023-02-10T03:52:40;100453.09;;;-4.41;93.34
42603;BME280;28233;55.748;48.752;2023-02-10T03:54:42;100461.16;;;-4.41;93.60
42603;BME280;28233;55.748;48.752;2023-02-10T03:56:45;100448.38;;;-4.39;93.54
42603;BME280;28233;55.748;48.752;2023-02-10T03:58:48;100458.69;;;-4.36;93.54
42603;BME280;28233;55.748;48.752;2023-02-10T04:00:50;100438.88;;;-4.35;93.45
42603;BME280;28233;55.748;48.752;2023-02-10T04:02:54;100444.84;;;-4.33;93.40
42603;BME280;28233;55.748;48.752;2023-02-10T04:04:56;100442.59;;;-4.29;93.76
42603;BME280;28233;55.748;48.752;2023-02-10T04:07:01;100437.25;;;-4.29;93.21
42603;BME280;28233;55.748;48.752;2023-02-10T04:09:04;100433.13;;;-4.25;93.42
42603;BME280;28233;55.748;48.752;2023-02-10T04:11:06;100427.34;;;-4.29;93.10
42603;BME280;28233;55.748;48.752;2023-02-10T04:13:11;100441.19;;;-4.25;93.39
42603;BME280;28233;55.748;48.752;2023-02-10T04:15:14;100438.28;;;-4.23;93.45
42603;BME280;28233;55.748;48.752;2023-02-10T04:17:16;100413.53;;;-4.26;93.10
42603;BME280;28233;55.748;48.752;2023-02-10T04:19:19;100424.03;;;-4.24;93.08
42603;BME280;28233;55.748;48.752;2023-02-10T04:21:22;100428.16;;;-4.28;93.00
42603;BME280;28233;55.748;48.752;2023-02-10T04:23:26;100435.38;;;-4.29;93.09
42603;BME280;28233;55.748;48.752;2023-02-10T04:25:29;100430.66;;;-4.27;93.02
42603;BME280;28233;55.748;48.752;2023-02-10T04:27:32;100425.28;;;-4.27;93.23
42603;BME280;28233;55.748;48.752;2023-02-10T04:29:35;100421.16;;;-4.29;92.80
42603;BME280;28233;55.748;48.752;2023-02-10T04:31:42;100444.25;;;-4.35;93.04
42603;BME280;28233;55.748;48.752;2023-02-10T04:33:45;100437.84;;;-4.34;92.71
42603;BME280;28233;55.748;48.752;2023-02-10T04:35:48;100430.25;;;-4.30;93.10
42603;BME280;28233;55.748;48.752;2023-02-10T04:37:51;100417.41;;;-4.28;93.49
42603;BME280;28233;55.748;48.752;2023-02-10T04:39:53;100426.31;;;-4.28;93.07
42603;BME280;28233;55.748;48.752;2023-02-10T04:41:56;100417.19;;;-4.33;93.07
42603;BME280;28233;55.748;48.752;2023-02-10T04:43:59;100430.25;;;-4.30;93.39
42603;BME280;28233;55.748;48.752;2023-02-10T04:46:01;100426.94;;;-4.26;93.33
42603;BME280;28233;55.748;48.752;2023-02-10T04:48:07;100420.94;;;-4.21;93.23
42603;BME280;28233;55.748;48.752;2023-02-10T04:50:10;100417.66;;;-4.16;93.38
42603;BME280;28233;55.748;48.752;2023-02-10T04:52:13;100413.34;;;-4.17;93.05
42603;BME280;28233;55.748;48.752;2023-02-10T04:54:15;100404.66;;;-4.13;92.99
42603;BME280;28233;55.748;48.752;2023-02-10T04:56:18;100413.75;;;-4.07;93.21
42603;BME280;28233;55.748;48.752;2023-02-10T04:58:21;100406.56;;;-4.07;93.12
42603;BME280;28233;55.748;48.752;2023-02-10T05:00:24;100411.50;;;-4.04;92.00
42603;BME280;28233;55.748;48.752;2023-02-10T05:02:27;100404.69;;;-3.99;91.88
42603;BME280;28233;55.748;48.752;2023-02-10T05:04:29;100404.47;;;-3.98;91.37
42603;BME280;28233;55.748;48.752;2023-02-10T05:06:33;100403.44;;;-4.04;91.45
42603;BME280;28233;55.748;48.752;2023-02-10T05:08:35;100401.34;;;-4.15;91.15
42603;BME280;28233;55.748;48.752;2023-02-10T05:10:43;100411.50;;;-4.04;90.93
42603;BME280;28233;55.748;48.752;2023-02-10T05:12:45;100403.66;;;-3.98;90.81
42603;BME280;28233;55.748;48.752;2023-02-10T05:14:48;100412.97;;;-3.94;90.65
42603;BME280;28233;55.748;48.752;2023-02-10T05:16:51;100404.31;;;-3.90;89.95
42603;BME280;28233;55.748;48.752;2023-02-10T05:18:54;100421.41;;;-3.91;89.43
42603;BME280;28233;55.748;48.752;2023-02-10T05:20:57;100414.59;;;-3.93;89.17
42603;BME280;28233;55.748;48.752;2023-02-10T05:22:59;100416.06;;;-3.97;89.11
42603;BME280;28233;55.748;48.752;2023-02-10T05:25:02;100426.38;;;-4.01;88.33
42603;BME280;28233;55.748;48.752;2023-02-10T05:27:05;100410.69;;;-4.04;88.18
42603;BME280;28233;55.748;48.752;2023-02-10T05:29:08;100421.63;;;-4.06;88.22
42603;BME280;28233;55.748;48.752;2023-02-10T05:31:11;100414.59;;;-4.07;88.27
42603;BME280;28233;55.748;48.752;2023-02-10T05:33:14;100415.22;;;-4.11;88.33
42603;BME280;28233;55.748;48.752;2023-02-10T05:35:17;100399.28;;;-4.19;88.33
42603;BME280;28233;55.748;48.752;2023-02-10T05:37:19;100407.53;;;-4.14;88.86
42603;BME280;28233;55.748;48.752;2023-02-10T05:39:22;100421.59;;;-4.12;88.75
42603;BME280;28233;55.748;48.752;2023-02-10T05:41:25;100421.81;;;-4.07;88.65
42603;BME280;28233;55.748;48.752;2023-02-10T05:43:28;100417.47;;;-4.15;88.11
42603;BME280;28233;55.748;48.752;2023-02-10T05:45:30;100417.03;;;-4.12;88.10
42603;BME280;28233;55.748;48.752;2023-02-10T05:47:33;100426.53;;;-4.09;88.18
42603;BME280;28233;55.748;48.752;2023-02-10T05:49:36;100424.50;;;-4.00;88.57
42603;BME280;28233;55.748;48.752;2023-02-10T05:51:38;100433.19;;;-3.98;88.42
42603;BME280;28233;55.748;48.752;2023-02-10T05:53:41;100416.25;;;-3.99;88.26
42603;BME280;28233;55.748;48.752;2023-02-10T05:55:45;100425.97;;;-3.91;87.83
42603;BME280;28233;55.748;48.752;2023-02-10T05:57:48;100430.72;;;-3.87;87.71
42603;BME280;28233;55.748;48.752;2023-02-10T05:59:52;100420.41;;;-3.83;88.10
42603;BME280;28233;55.748;48.752;2023-02-10T06:01:55;100415.03;;;-3.83;87.61
42603;BME280;28233;55.748;48.752;2023-02-10T06:03:58;100420.41;;;-3.76;87.55
42603;BME280;28233;55.748;48.752;2023-02-10T06:06:01;100419.19;;;-3.74;87.73
42603;BME280;28233;55.748;48.752;2023-02-10T06:08:04;100408.84;;;-3.77;87.58
42603;BME280;28233;55.748;48.752;2023-02-10T06:10:07;100410.28;;;-3.68;87.83
42603;BME280;28233;55.748;48.752;2023-02-10T06:12:10;100412.97;;;-3.61;87.59
42603;BME280;28233;55.748;48.752;2023-02-10T06:14:12;100413.19;;;-3.56;87.15
42603;BME280;28233;55.748;48.752;2023-02-10T06:16:15;100423.31;;;-3.58;86.46
42603;BME280;28233;55.748;48.752;2023-02-10T06:18:18;100412.38;;;-3.50;86.52
42603;BME280;28233;55.748;48.752;2023-02-10T06:20:20;100409.88;;;-3.45;86.53
42603;BME280;28233;55.748;48.752;2023-02-10T06:22:23;100403.47;;;-3.50;85.74
42603;BME280;28233;55.748;48.752;2023-02-10T06:24:26;100400.81;;;-3.50;85.82
42603;BME280;28233;55.748;48.752;2023-02-10T06:26:28;100392.94;;;-3.38;85.65
42603;BME280;28233;55.748;48.752;2023-02-10T06:28:31;100400.16;;;-3.39;85.33
42603;BME280;28233;55.748;48.752;2023-02-10T06:30:34;100391.47;;;-3.41;84.85
42603;BME280;28233;55.748;48.752;2023-02-10T06:32:37;100398.69;;;-3.35;84.47
42603;BME280;28233;55.748;48.752;2023-02-10T06:34:40;100405.75;;;-3.47;83.99
42603;BME280;28233;55.748;48.752;2023-02-10T06:36:43;100399.94;;;-3.37;84.32
42603;BME280;28233;55.748;48.752;2023-02-10T06:38:46;100409.03;;;-3.32;84.05
42603;BME280;28233;55.748;48.752;2023-02-10T06:40:50;100403.44;;;-3.30;83.72
42603;BME280;28233;55.748;48.752;2023-02-10T06:42:52;100388.97;;;-3.23;84.17
42603;BME280;28233;55.748;48.752;2023-02-10T06:44:55;100399.72;;;-3.23;83.48
42603;BME280;28233;55.748;48.752;2023-02-10T06:46:58;100377.38;;;-3.23;83.07
42603;BME280;28233;55.748;48.752;2023-02-10T06:49:01;100391.44;;;-3.08;83.21
42603;BME280;28233;55.748;48.752;2023-02-10T06:51:04;100387.47;;;-2.99;82.55
42603;BME280;28233;55.748;48.752;2023-02-10T06:53:07;100394.47;;;-2.91;82.28
42603;BME280;28233;55.748;48.752;2023-02-10T06:55:10;100388.44;;;-2.80;82.45
42603;BME280;28233;55.748;48.752;2023-02-10T06:57:14;100391.09;;;-2.73;80.96
42603;BME280;28233;55.748;48.752;2023-02-10T06:59:17;100382.00;;;-2.72;81.14
42603;BME280;28233;55.748;48.752;2023-02-10T07:01:19;100386.91;;;-2.62;81.25
42603;BME280;28233;55.748;48.752;2023-02-10T07:03:22;100385.28;;;-2.63;81.05
42603;BME280;28233;55.748;48.752;2023-02-10T07:05:25;100374.69;;;-2.58;80.77
42603;BME280;28233;55.748;48.752;2023-02-10T07:07:28;100380.44;;;-2.55;80.68
42603;BME280;28233;55.748;48.752;2023-02-10T07:09:31;100376.72;;;-2.47;80.78
42603;BME280;28233;55.748;48.752;2023-02-10T07:11:33;100372.34;;;-2.48;79.44
42603;BME280;28233;55.748;48.752;2023-02-10T07:13:36;100379.16;;;-2.45;79.86
42603;BME280;28233;55.748;48.752;2023-02-10T07:15:39;100367.72;;;-2.34;79.50
42603;BME280;28233;55.748;48.752;2023-02-10T07:17:41;100378.22;;;-2.26;80.08
42603;BME280;28233;55.748;48.752;2023-02-10T07:19:46;100374.50;;;-2.25;78.87
42603;BME280;28233;55.748;48.752;2023-02-10T07:21:49;100368.72;;;-2.28;78.18
42603;BME280;28233;55.748;48.752;2023-02-10T07:23:52;100380.75;;;-2.31;78.69
42603;BME280;28233;55.748;48.752;2023-02-10T07:25:55;100367.69;;;-2.27;78.56
42603;BME280;28233;55.748;48.752;2023-02-10T07:27:58;100366.38;;;-2.18;77.96
42603;BME280;28233;55.748;48.752;2023-02-10T07:30:00;100359.72;;;-2.09;78.14
42603;BME280;28233;55.748;48.752;2023-02-10T07:32:05;100366.53;;;-2.06;77.37
42603;BME280;28233;55.748;48.752;2023-02-10T07:34:07;100365.09;;;-2.09;77.27
42603;BME280;28233;55.748;48.752;2023-02-10T07:36:10;100363.66;;;-2.11;77.21
42603;BME280;28233;55.748;48.752;2023-02-10T07:38:13;100359.06;;;-2.04;77.02
42603;BME280;28233;55.748;48.752;2023-02-10T07:40:16;100351.31;;;-1.94;77.06
42603;BME280;28233;55.748;48.752;2023-02-10T07:42:19;100366.00;;;-1.90;76.57
42603;BME280;28233;55.748;48.752;2023-02-10T07:44:21;100347.75;;;-1.88;76.64
42603;BME280;28233;55.748;48.752;2023-02-10T07:46:24;100361.75;;;-1.79;76.17
42603;BME280;28233;55.748;48.752;2023-02-10T07:48:27;100359.66;;;-1.77;75.72
42603;BME280;28233;55.748;48.752;2023-02-10T07:50:29;100354.06;;;-1.76;75.28
42603;BME280;28233;55.748;48.752;2023-02-10T07:52:35;100355.28;;;-1.72;75.56
42603;BME280;28233;55.748;48.752;2023-02-10T07:54:38;100347.63;;;-1.75;75.11
42603;BME280;28233;55.748;48.752;2023-02-10T07:56:40;100343.13;;;-1.81;74.71
42603;BME280;28233;55.748;48.752;2023-02-10T07:58:43;100356.25;;;-1.91;75.11
42603;BME280;28233;55.748;48.752;2023-02-10T08:00:46;100330.63;;;-2.00;75.48
42603;BME280;28233;55.748;48.752;2023-02-10T08:02:49;100336.41;;;-1.97;75.66
42603;BME280;28233;55.748;48.752;2023-02-10T08:04:53;100334.94;;;-1.93;75.62
42603;BME280;28233;55.748;48.752;2023-02-10T08:06:57;100339.81;;;-1.83;75.66
42603;BME280;28233;55.748;48.752;2023-02-10T08:09:00;100334.53;;;-1.71;75.01
42603;BME280;28233;55.748;48.752;2023-02-10T08:11:05;100337.59;;;-1.67;75.19
42603;BME280;28233;55.748;48.752;2023-02-10T08:13:07;100323.03;;;-1.60;75.55
42603;BME280;28233;55.748;48.752;2023-02-10T08:15:10;100322.75;;;-1.52;74.69
42603;BME280;28233;55.748;48.752;2023-02-10T08:17:13;100330.31;;;-1.42;74.77
42603;BME280;28233;55.748;48.752;2023-02-10T08:19:15;100319.38;;;-1.47;73.96
42603;BME280;28233;55.748;48.752;2023-02-10T08:21:18;100321.69;;;-1.51;74.16
42603;BME280;28233;55.748;48.752;2023-02-10T08:23:20;100317.66;;;-1.41;74.27
42603;BME280;28233;55.748;48.752;2023-02-10T08:25:24;100312.66;;;-1.38;73.86
42603;BME280;28233;55.748;48.752;2023-02-10T08:27:27;100316.16;;;-1.37;74.01
42603;BME280;28233;55.748;48.752;2023-02-10T08:29:31;100313.31;;;-1.42;73.47
42603;BME280;28233;55.748;48.752;2023-02-10T08:31:34;100295.72;;;-1.45;73.81
42603;BME280;28233;55.748;48.752;2023-02-10T08:33:38;100296.75;;;-1.46;74.15
42603;BME280;28233;55.748;48.752;2023-02-10T08:35:48;100302.59;;;-1.49;73.85
42603;BME280;28233;55.748;48.752;2023-02-10T08:37:52;100291.47;;;-1.53;73.44
42603;BME280;28233;55.748;48.752;2023-02-10T08:39:55;100293.69;;;-1.50;74.15
42603;BME280;28233;55.748;48.752;2023-02-10T08:41:58;100290.63;;;-1.35;74.39
42603;BME280;28233;55.748;48.752;2023-02-10T08:44:01;100280.72;;;-1.22;74.06
42603;BME280;28233;55.748;48.752;2023-02-10T08:46:04;100287.25;;;-1.12;73.82
42603;BME280;28233;55.748;48.752;2023-02-10T08:48:06;100282.25;;;-1.08;72.99
42603;BME280;28233;55.748;48.752;2023-02-10T08:50:09;100274.03;;;-1.01;72.78
42603;BME280;28233;55.748;48.752;2023-02-10T08:52:12;100277.47;;;-0.94;72.76
42603;BME280;28233;55.748;48.752;2023-02-10T08:54:14;100269.63;;;-0.96;72.58
42603;BME280;28233;55.748;48.752;2023-02-10T08:56:18;100276.00;;;-0.90;72.43
42603;BME280;28233;55.748;48.752;2023-02-10T08:58:20;100273.16;;;-0.95;72.15
42603;BME280;28233;55.748;48.752;2023-02-10T09:00:23;100264.25;;;-0.96;72.13
42603;BME280;28233;55.748;48.752;2023-02-10T09:02:26;100264.84;;;-0.94;72.17
42603;BME280;28233;55.748;48.752;2023-02-10T09:04:29;100262.50;;;-0.90;72.61
42603;BME280;28233;55.748;48.752;2023-02-10T09:06:35;100256.81;;;-0.82;72.89
42603;BME280;28233;55.748;48.752;2023-02-10T09:08:48;100258.09;;;-0.84;72.48
42603;BME280;28233;55.748;48.752;2023-02-10T09:10:50;100259.25;;;-0.80;72.33
42603;BME280;28233;55.748;48.752;2023-02-10T09:12:53;100255.13;;;-0.83;72.82
42603;BME280;28233;55.748;48.752;2023-02-10T09:14:56;100261.13;;;-0.81;72.58
42603;BME280;28233;55.748;48.752;2023-02-10T09:16:58;100257.03;;;-0.83;72.70
42603;BME280;28233;55.748;48.752;2023-02-10T09:19:01;100249.53;;;-0.81;72.70
42603;BME280;28233;55.748;48.752;2023-02-10T09:21:04;100246.31;;;-0.90;71.93
42603;BME280;28233;55.748;48.752;2023-02-10T09:23:07;100243.47;;;-0.95;71.93
42603;BME280;28233;55.748;48.752;2023-02-10T09:25:10;100241.31;;;-1.05;72.26
42603;BME280;28233;55.748;48.752;2023-02-10T09:27:13;100243.63;;;-1.09;72.58
42603;BME280;28233;55.748;48.752;2023-02-10T09:29:16;100238.13;;;-1.14;73.26
42603;BME280;28233;55.748;48.752;2023-02-10T09:31:19;100221.72;;;-1.12;73.56
42603;BME280;28233;55.748;48.752;2023-02-10T09:33:23;100236.97;;;-1.06;72.49
42603;BME280;28233;55.748;48.752;2023-02-10T09:35:26;100239.41;;;-1.16;72.79
42603;BME280;28233;55.748;48.752;2023-02-10T09:37:28;100230.28;;;-1.15;72.75
42603;BME280;28233;55.748;48.752;2023-02-10T09:39:31;100225.09;;;-1.17;72.98
42603;BME280;28233;55.748;48.752;2023-02-10T09:43:53;100234.69;;;-1.21;72.79
42603;BME280;28233;55.748;48.752;2023-02-10T09:48:28;100223.16;;;-1.28;73.32
42603;BME280;28233;55.748;48.752;2023-02-10T09:50:59;100225.25;;;-1.30;73.32
42603;BME280;28233;55.748;48.752;2023-02-10T09:53:22;100217.47;;;-1.38;73.33
42603;BME280;28233;55.748;48.752;2023-02-10T09:55:56;100223.91;;;-1.39;73.37
42603;BME280;28233;55.748;48.752;2023-02-10T10:00:28;100211.34;;;-1.45;73.44
42603;BME280;28233;55.748;48.752;2023-02-10T10:02:42;100212.31;;;-1.58;74.14
42603;BME280;28233;55.748;48.752;2023-02-10T10:04:48;100206.03;;;-1.52;74.65
42603;BME280;28233;55.748;48.752;2023-02-10T10:07:03;100208.94;;;-1.54;74.16
42603;BME280;28233;55.748;48.752;2023-02-10T10:09:23;100198.41;;;-1.55;74.18
42603;BME280;28233;55.748;48.752;2023-02-10T10:13:42;100186.56;;;-1.54;74.53
42603;BME280;28233;55.748;48.752;2023-02-10T10:16:05;100196.75;;;-1.56;74.41
42603;BME280;28233;55.748;48.752;2023-02-10T10:25:53;100181.91;;;-2.02;75.58
42603;BME280;28233;55.748;48.752;2023-02-10T10:30:18;100166.66;;;-1.90;75.87
42603;BME280;28233;55.748;48.752;2023-02-10T10:34:29;100164.41;;;-1.75;76.03
42603;BME280;28233;55.748;48.752;2023-02-10T10:36:39;100178.78;;;-1.81;75.63
42603;BME280;28233;55.748;48.752;2023-02-10T10:38:51;100167.84;;;-1.86;75.44
42603;BME280;28233;55.748;48.752;2023-02-10T10:41:01;100174.44;;;-1.82;75.44
42603;BME280;28233;55.748;48.752;2023-02-10T10:43:05;100165.22;;;-1.74;76.01
42603;BME280;28233;55.748;48.752;2023-02-10T10:45:15;100163.00;;;-1.77;75.28
42603;BME280;28233;55.748;48.752;2023-02-10T10:49:31;100163.00;;;-1.77;75.50
42603;BME280;28233;55.748;48.752;2023-02-10T10:51:34;100154.91;;;-1.77;75.16
42603;BME280;28233;55.748;48.752;2023-02-10T10:53:41;100156.72;;;-1.71;75.10
42603;BME280;28233;55.748;48.752;2023-02-10T10:55:49;100153.22;;;-1.72;75.08
42603;BME280;28233;55.748;48.752;2023-02-10T10:57:54;100145.41;;;-1.80;74.60
42603;BME280;28233;55.748;48.752;2023-02-10T11:00:19;100137.94;;;-1.78;74.77
42603;BME280;28233;55.748;48.752;2023-02-10T11:02:23;100144.72;;;-1.75;74.66
42603;BME280;28233;55.748;48.752;2023-02-10T11:04:29;100139.06;;;-1.85;74.59
42603;BME280;28233;55.748;48.752;2023-02-10T11:06:35;100139.28;;;-1.87;74.72
42603;BME280;28233;55.748;48.752;2023-02-10T11:08:53;100145.13;;;-1.90;74.88
42603;BME280;28233;55.748;48.752;2023-02-10T11:10:59;100135.63;;;-1.93;74.53
42603;BME280;28233;55.748;48.752;2023-02-10T11:13:03;100141.81;;;-1.92;75.01
42603;BME280;28233;55.748;48.752;2023-02-10T11:15:40;100124.91;;;-1.99;75.48
42603;BME280;28233;55.748;48.752;2023-02-10T11:17:46;100139.59;;;-1.95;74.97
42603;BME280;28233;55.748;48.752;2023-02-10T11:20:03;100132.25;;;-2.06;74.32
42603;BME280;28233;55.748;48.752;2023-02-10T11:22:14;100123.56;;;-2.08;75.38
42603;BME280;28233;55.748;48.752;2023-02-10T11:24:29;100125.03;;;-2.31;75.23
42603;BME280;28233;55.748;48.752;2023-02-10T11:26:33;100135.44;;;-2.35;75.70
42603;BME280;28233;55.748;48.752;2023-02-10T11:28:36;100123.31;;;-2.44;76.03